Time;durP1;ratioP1;P1;durP2;ratioP2;P2;SDS_P1;SDS_P2;PMS_P1;PMS_P2;Temp;Humidity;BMP_temperature;BMP_pressure;BME280_temperature;BME280_humidity;BME280_pressure;Samples;Min_cycle;Max_cycle;Signal;HPM_P1;HPM_P2
2022/08/23 00:01:10;;;;;;;20.50;13.07;;;17.70;99.90;;;;;;5027423;28;20170;-86
2022/08/23 00:03:36;;;;;;;21.92;13.55;;;17.70;99.90;;;;;;5046423;28;20030;-90
2022/08/23 00:06:01;;;;;;;22.15;13.60;;;17.70;99.90;;;;;;5044796;28;20101;-89
2022/08/23 00:08:28;;;;;;;25.95;14.45;;;17.70;99.90;;;;;;5021799;28;20051;-89
2022/08/23 00:10:54;;;;;;;30.10;16.05;;;17.70;99.90;;;;;;5019892;28;20033;-89
2022/08/23 00:13:21;;;;;;;29.98;18.17;;;17.70;99.90;;;;;;5019641;28;20032;-90
2022/08/23 00:15:46;;;;;;;28.63;16.75;;;17.60;99.90;;;;;;5020596;28;20061;-87
2022/08/23 00:18:14;;;;;;;31.00;16.67;;;17.70;99.90;;;;;;5037561;28;20362;-90
2022/08/23 00:20:40;;;;;;;30.95;16.73;;;17.70;99.90;;;;;;5018689;28;20481;-87
2022/08/23 00:23:06;;;;;;;30.52;16.58;;;17.70;99.90;;;;;;5019615;28;20052;-89
2022/08/23 00:25:32;;;;;;;27.30;15.73;;;17.60;99.90;;;;;;5019086;28;20018;-88
2022/08/23 00:27:58;;;;;;;31.80;16.77;;;17.70;99.90;;;;;;5019349;28;20049;-86
2022/08/23 00:30:24;;;;;;;25.75;15.35;;;17.70;99.90;;;;;;5020671;28;20037;-87
2022/08/23 00:32:50;;;;;;;26.98;14.38;;;17.70;99.90;;;;;;5020999;28;20025;-90
2022/08/23 00:35:17;;;;;;;26.27;14.75;;;17.70;99.90;;;;;;5037512;28;20025;-87
2022/08/23 00:37:43;;;;;;;22.33;12.68;;;17.70;99.90;;;;;;5037310;28;20026;-92
2022/08/23 00:40:11;;;;;;;22.80;13.75;;;17.70;99.90;;;;;;5018225;28;20029;-91
2022/08/23 00:49:02;;;;;;;24.13;12.57;;;17.70;99.90;;;;;;5035917;28;20505;-88
2022/08/23 00:51:43;;;;;;;24.02;12.00;;;17.70;99.90;;;;;;5041504;23;20497;-56
2022/08/23 00:54:10;;;;;;;20.35;12.05;;;17.70;99.90;;;;;;5031122;28;20108;-55
2022/08/23 00:56:38;;;;;;;21.60;12.90;;;17.70;99.90;;;;;;5032131;28;20021;-55
2022/08/23 00:59:04;;;;;;;23.35;11.75;;;17.70;99.90;;;;;;5030961;28;20361;-56
2022/08/23 01:01:30;;;;;;;21.20;10.73;;;17.70;99.90;;;;;;5032042;28;20037;-56
2022/08/23 01:03:58;;;;;;;17.50;11.40;;;17.70;99.90;;;;;;5031987;28;20781;-56
2022/08/23 01:06:46;;;;;;;20.02;11.38;;;17.70;99.90;;;;;;5053722;28;20029;-56
2022/08/23 01:09:17;;;;;;;23.15;12.85;;;17.60;99.90;;;;;;5043120;28;20696;-56
2022/08/23 01:12:13;;;;;;;35.65;12.10;;;17.60;99.90;;;;;;5041776;28;20044;-56
2022/08/23 01:14:46;;;;;;;25.15;12.98;;;17.40;99.90;;;;;;5041075;28;20204;-56
2022/08/23 01:17:26;;;;;;;31.58;13.85;;;17.40;99.90;;;;;;5040185;28;20022;-55
2022/08/23 01:19:57;;;;;;;28.08;14.80;;;17.30;99.90;;;;;;5038679;28;20017;-56
2022/08/23 01:22:41;;;;;;;32.33;15.02;;;17.30;99.90;;;;;;5040855;28;20038;-55
2022/08/23 01:25:14;;;;;;;31.48;15.18;;;17.40;99.90;;;;;;5041128;28;20112;-56
2022/08/23 01:27:41;;;;;;;34.58;16.65;;;17.40;99.90;;;;;;5041078;28;20036;-56
2022/08/23 01:30:10;;;;;;;27.00;15.68;;;17.50;99.90;;;;;;5039197;28;20039;-55
2022/08/23 01:32:43;;;;;;;32.13;15.52;;;17.50;99.90;;;;;;5039879;28;20025;-56
2022/08/23 01:35:09;;;;;;;30.30;15.68;;;17.50;99.90;;;;;;5041728;28;20061;-55
2022/08/23 01:37:35;;;;;;;31.25;15.68;;;17.50;99.90;;;;;;5039182;28;20063;-55
2022/08/23 01:40:01;;;;;;;29.17;14.90;;;17.50;99.90;;;;;;5039899;28;20029;-56
2022/08/23 01:42:27;;;;;;;28.88;14.45;;;17.60;99.90;;;;;;5039145;28;20147;-55
2022/08/23 01:44:53;;;;;;;27.63;15.60;;;17.50;99.90;;;;;;5038940;28;20018;-55
2022/08/23 01:47:18;;;;;;;26.15;13.68;;;17.50;99.90;;;;;;5040122;28;20024;-55
2022/08/23 01:49:44;;;;;;;27.60;12.25;;;17.50;99.90;;;;;;5040654;28;20489;-55
2022/08/23 01:52:10;;;;;;;23.33;12.38;;;17.60;99.90;;;;;;5038442;28;20064;-55
2022/08/23 01:54:35;;;;;;;23.80;12.88;;;17.60;99.90;;;;;;5040079;28;20025;-56
2022/08/23 01:57:01;;;;;;;25.05;14.05;;;17.60;99.90;;;;;;5040100;28;20535;-56
2022/08/23 01:59:27;;;;;;;24.95;14.10;;;17.60;99.90;;;;;;5038833;28;20471;-55
2022/08/23 02:01:53;;;;;;;30.25;15.25;;;17.60;99.90;;;;;;5039033;28;20040;-56
2022/08/23 02:04:21;;;;;;;27.90;15.23;;;17.70;99.90;;;;;;5039196;28;20484;-56
2022/08/23 02:06:47;;;;;;;33.15;15.38;;;17.60;99.90;;;;;;5022765;28;20423;-57
2022/08/23 02:09:12;;;;;;;30.92;16.05;;;17.60;99.90;;;;;;5038496;28;20653;-56
2022/08/23 02:11:40;;;;;;;26.75;16.60;;;17.60;99.90;;;;;;5039119;28;20044;-57
2022/08/23 02:14:13;;;;;;;26.02;16.05;;;17.60;99.90;;;;;;5038983;28;20543;-57
2022/08/23 02:16:42;;;;;;;26.80;15.35;;;17.60;99.90;;;;;;5039441;28;20036;-56
2022/08/23 02:19:10;;;;;;;28.48;16.58;;;17.50;99.90;;;;;;5038163;28;20056;-56
2022/08/23 02:21:37;;;;;;;27.73;16.00;;;17.50;99.90;;;;;;5039306;28;20045;-56
2022/08/23 02:24:09;;;;;;;30.40;16.15;;;17.50;99.90;;;;;;5039604;28;20430;-56
2022/08/23 02:26:37;;;;;;;25.35;16.05;;;17.60;99.90;;;;;;5039831;28;20068;-56
2022/08/23 02:29:04;;;;;;;28.67;16.98;;;17.60;99.90;;;;;;5038295;28;20554;-56
2022/08/23 02:31:30;;;;;;;26.27;16.90;;;17.60;99.90;;;;;;5038854;28;20036;-56
2022/08/23 02:33:55;;;;;;;29.25;18.05;;;17.60;99.90;;;;;;5033352;28;20436;-57
2022/08/23 02:36:21;;;;;;;28.85;16.75;;;17.60;99.90;;;;;;5029993;28;20032;-56
2022/08/23 02:38:47;;;;;;;28.15;16.30;;;17.60;99.90;;;;;;5030449;28;20461;-57
2022/08/23 02:41:13;;;;;;;29.23;17.02;;;17.60;99.90;;;;;;5029925;28;20033;-56
2022/08/23 02:43:39;;;;;;;30.30;17.65;;;17.50;99.90;;;;;;5029969;28;20034;-56
2022/08/23 02:46:05;;;;;;;33.15;17.52;;;17.50;99.90;;;;;;5030128;28;20044;-56
2022/08/23 02:48:33;;;;;;;35.70;17.40;;;17.50;99.90;;;;;;5030062;28;20045;-56
2022/08/23 02:51:00;;;;;;;28.40;17.65;;;17.50;99.90;;;;;;5029867;28;20101;-56
2022/08/23 02:53:26;;;;;;;31.77;17.90;;;17.50;99.90;;;;;;5029837;28;20637;-57
2022/08/23 02:55:51;;;;;;;34.72;19.17;;;17.50;99.90;;;;;;5030170;28;20029;-56
2022/08/23 02:58:17;;;;;;;28.50;17.05;;;17.60;99.90;;;;;;5030037;28;20473;-56
2022/08/23 03:00:48;;;;;;;28.27;18.10;;;17.60;99.90;;;;;;5030029;28;20392;-56
2022/08/23 03:03:14;;;;;;;31.38;17.73;;;17.60;99.90;;;;;;5029757;28;20052;-57
2022/08/23 03:05:40;;;;;;;26.85;16.85;;;17.60;99.90;;;;;;5029894;28;20026;-56
2022/08/23 03:08:07;;;;;;;31.13;17.30;;;17.60;99.90;;;;;;5029688;28;20025;-56
2022/08/23 03:10:33;;;;;;;26.15;16.35;;;17.60;99.90;;;;;;5029706;28;20084;-57
2022/08/23 03:12:59;;;;;;;28.95;17.67;;;17.60;99.90;;;;;;5030731;28;20029;-56
2022/08/23 03:15:25;;;;;;;30.23;18.30;;;17.60;99.90;;;;;;5038765;28;20030;-55
2022/08/23 03:17:51;;;;;;;31.10;18.70;;;17.60;99.90;;;;;;5041894;28;20279;-55
2022/08/23 03:20:16;;;;;;;32.17;19.65;;;17.60;99.90;;;;;;5029604;28;20034;-56
2022/08/23 03:22:42;;;;;;;31.35;19.15;;;17.60;99.90;;;;;;5031687;28;20083;-58
2022/08/23 03:25:08;;;;;;;33.42;19.35;;;17.60;99.90;;;;;;5049850;28;20025;-57
2022/08/23 03:27:34;;;;;;;32.13;19.73;;;17.70;99.90;;;;;;5046306;28;20333;-57
2022/08/23 03:30:00;;;;;;;28.53;18.33;;;17.70;99.90;;;;;;5044423;28;20033;-56
2022/08/23 03:32:26;;;;;;;29.52;18.15;;;17.60;99.90;;;;;;5043187;28;20405;-56
2022/08/23 03:34:52;;;;;;;31.88;17.90;;;17.60;99.90;;;;;;5044934;28;20469;-56
2022/08/23 03:37:18;;;;;;;29.58;18.90;;;17.60;99.90;;;;;;5041988;28;20026;-56
2022/08/23 03:39:44;;;;;;;30.08;17.83;;;17.60;99.90;;;;;;5043525;28;20025;-56
2022/08/23 03:42:10;;;;;;;34.90;19.73;;;17.60;99.90;;;;;;5043355;28;20036;-56
2022/08/23 03:44:36;;;;;;;29.35;18.48;;;17.60;99.90;;;;;;5050362;28;20027;-56
2022/08/23 03:47:04;;;;;;;30.40;18.27;;;17.70;99.90;;;;;;5053566;28;20668;-57
2022/08/23 03:49:29;;;;;;;;;;;17.70;99.90;;;;;;5053841;28;20468;-57
2022/08/23 03:51:55;;;;;;;32.33;17.98;;;17.70;99.90;;;;;;5053014;28;19917;-56
2022/08/23 03:54:20;;;;;;;27.35;18.40;;;17.70;99.90;;;;;;5053077;28;20033;-56
2022/08/23 03:56:59;;;;;;;30.60;19.20;;;17.70;99.90;;;;;;5052577;28;20036;-56
2022/08/23 03:59:25;;;;;;;31.40;18.80;;;17.70;99.90;;;;;;5032938;28;20030;-56
2022/08/23 04:01:51;;;;;;;30.23;17.63;;;17.70;99.90;;;;;;5038172;28;20092;-59
2022/08/23 04:04:17;;;;;;;35.47;18.80;;;17.60;99.90;;;;;;5040900;28;20036;-59
2022/08/23 04:06:44;;;;;;;33.90;19.70;;;17.60;99.90;;;;;;5041888;28;20036;-58
2022/08/23 04:09:14;;;;;;;39.03;21.80;;;17.60;99.90;;;;;;5042467;28;20029;-59
2022/08/23 04:11:42;;;;;;;36.50;21.10;;;17.60;99.90;;;;;;5040794;28;20076;-59
2022/08/23 04:14:09;;;;;;;40.63;20.40;;;17.60;99.90;;;;;;5041439;28;20023;-59
2022/08/23 04:16:39;;;;;;;39.13;21.00;;;17.60;99.90;;;;;;5042429;28;20436;-59
2022/08/23 04:19:07;;;;;;;33.60;20.33;;;17.60;99.90;;;;;;5042754;28;20029;-58
2022/08/23 04:21:34;;;;;;;35.65;19.63;;;17.60;99.90;;;;;;5038965;28;20435;-58
2022/08/23 04:23:59;;;;;;;;;;;17.60;99.90;;;;;;5040661;28;20091;-59
2022/08/23 04:26:25;;;;;;;31.90;18.35;;;17.60;99.90;;;;;;5040241;28;20272;-58
2022/08/23 04:28:51;;;;;;;37.80;20.10;;;17.60;99.90;;;;;;5042246;28;20036;-59
2022/08/23 04:31:19;;;;;;;32.60;19.42;;;17.60;99.90;;;;;;5041034;28;20021;-58
2022/08/23 04:33:45;;;;;;;31.20;18.08;;;17.60;99.90;;;;;;5039952;28;20028;-59
2022/08/23 04:36:11;;;;;;;32.45;18.92;;;17.60;99.90;;;;;;5069293;28;20057;-58
2022/08/23 04:38:37;;;;;;;31.27;17.95;;;17.70;99.90;;;;;;5040947;28;20080;-58
2022/08/23 04:43:47;;;;;;;32.03;18.58;;;17.70;99.90;;;;;;5038899;28;20052;-58
2022/08/23 04:46:14;;;;;;;30.27;18.40;;;17.70;99.90;;;;;;5042256;28;20431;-58
2022/08/23 04:48:41;;;;;;;30.95;17.38;;;17.70;99.90;;;;;;5040587;28;20121;-58
2022/08/23 04:51:07;;;;;;;33.53;18.13;;;17.70;99.90;;;;;;5040898;28;20473;-59
2022/08/23 04:53:34;;;;;;;29.95;18.27;;;17.60;99.90;;;;;;5041421;28;20036;-58
2022/08/23 04:56:03;;;;;;;31.77;19.83;;;17.70;99.90;;;;;;5042443;28;20028;-59
2022/08/23 04:58:30;;;;;;;32.90;18.40;;;17.70;99.90;;;;;;5041543;28;20026;-60
2022/08/23 05:00:58;;;;;;;37.50;18.77;;;17.70;99.90;;;;;;5040853;28;20064;-59
2022/08/23 05:03:24;;;;;;;32.35;18.60;;;17.80;99.90;;;;;;5071661;28;20065;-59
2022/08/23 05:05:51;;;;;;;30.17;19.02;;;17.80;99.90;;;;;;5041388;28;20051;-59
2022/08/23 05:08:17;;;;;;;30.17;18.17;;;17.80;99.90;;;;;;5040445;28;20155;-59
2022/08/23 05:10:43;;;;;;;32.63;18.58;;;17.80;99.90;;;;;;5039464;28;20037;-57
2022/08/23 05:13:09;;;;;;;32.08;19.25;;;17.80;99.90;;;;;;5040643;28;20017;-58
2022/08/23 05:15:35;;;;;;;33.42;18.90;;;17.80;99.90;;;;;;5041469;28;20073;-58
2022/08/23 05:18:01;;;;;;;31.30;18.38;;;17.80;99.90;;;;;;5039240;28;20025;-58
2022/08/23 05:20:27;;;;;;;31.27;18.35;;;17.80;99.90;;;;;;5039415;28;20045;-58
2022/08/23 05:22:53;;;;;;;35.10;18.83;;;17.80;99.90;;;;;;5040008;28;20082;-58
2022/08/23 05:25:19;;;;;;;30.02;20.23;;;17.90;99.90;;;;;;5041097;28;20055;-58
2022/08/23 05:27:45;;;;;;;34.92;20.35;;;17.90;99.90;;;;;;5039602;28;20040;-58
2022/08/23 05:30:11;;;;;;;31.77;20.40;;;17.90;99.90;;;;;;5039287;28;20025;-58
2022/08/23 05:32:37;;;;;;;34.20;20.25;;;17.90;99.90;;;;;;5045211;28;20029;-58
2022/08/23 05:35:04;;;;;;;38.10;22.90;;;18.00;99.90;;;;;;5051581;28;20021;-56
2022/08/23 05:37:29;;;;;;;41.75;22.80;;;17.90;99.90;;;;;;5050816;28;20041;-56
2022/08/23 05:39:55;;;;;;;43.25;22.08;;;17.90;99.90;;;;;;5050966;28;20084;-57
2022/08/23 05:42:21;;;;;;;41.25;23.52;;;17.90;99.90;;;;;;5051088;28;20041;-57
2022/08/23 05:44:47;;;;;;;40.42;21.90;;;18.00;99.90;;;;;;5050275;28;20047;-56
2022/08/23 05:47:14;;;;;;;41.05;24.00;;;18.00;99.90;;;;;;5051135;28;20033;-56
2022/08/23 05:49:40;;;;;;;;;;;18.00;99.90;;;;;;5050370;28;20119;-57
2022/08/23 05:52:10;;;;;;;38.95;22.35;;;18.00;99.90;;;;;;5050463;28;20423;-57
2022/08/23 05:54:36;;;;;;;52.13;26.17;;;18.10;99.90;;;;;;5050201;28;20039;-56
2022/08/23 05:57:02;;;;;;;47.88;25.42;;;18.10;99.90;;;;;;5048520;28;20310;-57
2022/08/23 05:59:29;;;;;;;43.75;25.08;;;18.10;99.90;;;;;;5050041;28;20487;-62
2022/08/23 06:01:55;;;;;;;41.90;23.85;;;18.10;99.90;;;;;;5049808;28;20033;-57
2022/08/23 06:04:21;;;;;;;45.03;23.58;;;18.10;99.90;;;;;;5049700;28;20021;-58
2022/08/23 06:06:47;;;;;;;49.42;24.63;;;18.10;99.90;;;;;;5049799;28;20068;-58
2022/08/23 06:09:15;;;;;;;48.35;26.58;;;18.20;99.90;;;;;;5049405;28;20098;-57
2022/08/23 06:11:43;;;;;;;41.90;24.10;;;18.20;99.90;;;;;;5049642;28;20036;-57
2022/08/23 06:14:09;;;;;;;46.08;26.35;;;18.10;99.90;;;;;;5049631;28;20492;-57
2022/08/23 06:16:39;;;;;;;52.00;26.48;;;18.10;99.90;;;;;;5049494;28;20087;-57
2022/08/23 06:19:06;;;;;;;49.38;26.92;;;18.20;99.90;;;;;;5049439;28;20032;-58
2022/08/23 06:21:33;;;;;;;51.00;28.35;;;18.20;99.90;;;;;;5049357;28;20655;-57
2022/08/23 06:23:59;;;;;;;51.05;26.80;;;18.20;99.90;;;;;;5049840;28;20435;-57
2022/08/23 06:26:31;;;;;;;48.17;26.05;;;18.30;99.90;;;;;;5047907;28;20400;-57
2022/08/23 06:29:01;;;;;;;60.63;28.67;;;18.30;99.90;;;;;;5049502;28;20025;-57
2022/08/23 06:31:46;;;;;;;57.90;30.70;;;18.40;99.90;;;;;;5034919;28;20033;-57
2022/08/23 06:34:15;;;;;;;56.85;28.40;;;18.40;99.90;;;;;;5035373;28;20115;-57
2022/08/23 06:36:41;;;;;;;58.97;28.80;;;18.40;99.90;;;;;;5035944;28;20029;-56
2022/08/23 06:39:09;;;;;;;64.25;30.98;;;18.50;99.90;;;;;;5041550;28;20028;-57
2022/08/23 06:41:35;;;;;;;54.35;28.27;;;18.50;99.90;;;;;;5037182;28;20130;-57
2022/08/23 06:44:00;;;;;;;54.33;29.25;;;18.50;99.90;;;;;;5037390;28;20056;-56
2022/08/23 06:46:28;;;;;;;63.20;30.75;;;18.50;99.90;;;;;;5036826;28;20668;-58
2022/08/23 06:48:54;;;;;;;63.38;31.30;;;18.50;99.90;;;;;;5038204;28;20060;-57
2022/08/23 06:51:38;;;;;;;56.70;28.83;;;18.50;99.90;;;;;;4997549;28;1191475;-57
2022/08/23 06:54:06;;;;;;;64.68;30.45;;;18.50;99.90;;;;;;5047320;28;20184;-57
2022/08/23 06:56:32;;;;;;;63.15;30.73;;;18.60;99.90;;;;;;5049612;28;20021;-58
2022/08/23 06:58:58;;;;;;;60.85;30.58;;;18.70;99.90;;;;;;5049700;28;20032;-56
2022/08/23 07:01:32;;;;;;;58.83;30.88;;;18.70;99.90;;;;;;5049753;28;20048;-59
2022/08/23 07:03:59;;;;;;;59.28;30.90;;;18.70;99.90;;;;;;5049467;28;20029;-58
2022/08/23 07:06:25;;;;;;;;;;;18.70;99.90;;;;;;5048479;28;20025;-58
2022/08/23 07:08:51;;;;;;;54.42;29.58;;;18.80;99.90;;;;;;5030653;28;20500;-58
2022/08/23 07:11:18;;;;;;;67.95;32.35;;;18.80;99.90;;;;;;5028055;28;20034;-58
2022/08/23 07:13:44;;;;;;;54.03;30.50;;;18.90;99.90;;;;;;5028848;28;20025;-58
2022/08/23 07:16:10;;;;;;;57.27;31.23;;;19.00;99.90;;;;;;5028676;28;20108;-58
2022/08/23 07:18:36;;;;;;;56.70;30.88;;;19.00;99.90;;;;;;5028599;28;20037;-58
2022/08/23 07:21:06;;;;;;;53.38;29.88;;;19.00;99.90;;;;;;5028663;28;20045;-57
2022/08/23 07:23:34;;;;;;;54.75;29.90;;;19.00;99.90;;;;;;5029179;28;20029;-58
2022/08/23 07:26:07;;;;;;;59.25;29.77;;;19.00;99.90;;;;;;5029533;28;20155;-58
2022/08/23 07:28:33;;;;;;;54.70;29.17;;;19.10;99.90;;;;;;5028407;28;20026;-57
2022/08/23 07:31:14;;;;;;;47.28;27.48;;;19.20;99.90;;;;;;5027570;28;20034;-58
2022/08/23 07:33:40;;;;;;;52.08;29.60;;;19.20;99.90;;;;;;5027576;28;20031;-58
2022/08/23 07:36:08;;;;;;;48.03;29.60;;;19.20;99.90;;;;;;5027598;28;20084;-58
2022/08/23 07:38:34;;;;;;;;;;;19.20;99.90;;;;;;5028156;28;20108;-57
2022/08/23 07:41:02;;;;;;;44.40;26.52;;;19.20;99.90;;;;;;5028617;28;19964;-58
2022/08/23 07:43:28;;;;;;;43.70;26.77;;;19.20;99.90;;;;;;5028232;28;20116;-58
2022/08/23 07:45:54;;;;;;;42.57;26.23;;;19.30;99.90;;;;;;5029081;28;20404;-58
2022/08/23 07:48:20;;;;;;;39.28;24.80;;;19.30;99.90;;;;;;5029479;28;20037;-58
2022/08/23 07:50:59;;;;;;;41.78;25.20;;;19.20;99.90;;;;;;5029496;28;20040;-58
2022/08/23 07:53:25;;;;;;;49.42;29.08;;;19.30;99.90;;;;;;5029370;28;20137;-58
2022/08/23 07:55:52;;;;;;;44.92;25.42;;;19.30;99.90;;;;;;5029714;28;20030;-57
2022/08/23 07:58:18;;;;;;;42.57;26.03;;;19.30;99.90;;;;;;5029493;28;20052;-56
2022/08/23 08:00:44;;;;;;;44.45;26.10;;;19.30;99.90;;;;;;5029244;28;20480;-57
2022/08/23 08:03:12;;;;;;;43.10;24.73;;;19.40;99.90;;;;;;5029170;28;20082;-57
2022/08/23 08:05:38;;;;;;;46.00;26.08;;;19.40;99.90;;;;;;5029425;28;20546;-57
2022/08/23 08:08:06;;;;;;;43.95;25.23;;;19.40;99.90;;;;;;5030268;28;20030;-57
2022/08/23 08:10:32;;;;;;;;;;;19.50;99.90;;;;;;5033492;28;20487;-57
2022/08/23 08:12:57;;;;;;;37.03;23.00;;;19.40;99.90;;;;;;5031662;28;19912;-57
2022/08/23 08:15:23;;;;;;;42.08;25.20;;;19.40;99.90;;;;;;5033023;28;20556;-58
2022/08/23 08:17:50;;;;;;;40.38;23.38;;;19.60;99.90;;;;;;5033079;28;20067;-58
2022/08/23 08:20:17;;;;;;;38.83;27.07;;;19.50;99.90;;;;;;5031375;28;20388;-58
2022/08/23 08:22:44;;;;;;;42.40;26.23;;;19.60;99.90;;;;;;5032815;28;20032;-57
2022/08/23 08:25:10;;;;;;;35.75;23.33;;;19.60;99.90;;;;;;5032806;28;20136;-58
2022/08/23 08:27:36;;;;;;;37.05;25.95;;;19.60;99.90;;;;;;5032818;28;20035;-57
2022/08/23 08:30:04;;;;;;;39.38;24.40;;;19.60;99.90;;;;;;5032746;28;20030;-57
2022/08/23 08:32:30;;;;;;;37.78;23.67;;;19.60;99.90;;;;;;5032385;28;20056;-57
2022/08/23 08:34:56;;;;;;;38.55;24.25;;;19.60;99.90;;;;;;5032594;28;20438;-57
2022/08/23 08:37:22;;;;;;;44.60;27.48;;;19.60;99.90;;;;;;5032663;28;20068;-56
2022/08/23 08:39:47;;;;;;;49.67;30.05;;;19.60;99.90;;;;;;5032568;28;20116;-57
2022/08/23 08:42:19;;;;;;;51.10;31.08;;;19.60;99.90;;;;;;5032075;28;20041;-57
2022/08/23 08:44:50;;;;;;;47.88;30.40;;;19.60;99.90;;;;;;5032303;28;20083;-57
2022/08/23 08:47:29;;;;;;;49.20;30.88;;;19.70;99.90;;;;;;5032460;28;20053;-57
2022/08/23 08:50:00;;;;;;;46.00;28.48;;;19.70;99.90;;;;;;5032306;28;20034;-57
2022/08/23 08:52:31;;;;;;;53.75;30.08;;;19.70;99.90;;;;;;5047166;28;20144;-57
2022/08/23 08:55:05;;;;;;;52.00;29.85;;;19.70;99.90;;;;;;5032237;28;20029;-57
2022/08/23 08:57:37;;;;;;;43.00;28.80;;;19.70;99.90;;;;;;5031958;28;20120;-57
2022/08/23 09:00:12;;;;;;;42.67;27.70;;;19.80;99.90;;;;;;5032082;28;20086;-59
2022/08/23 09:02:38;;;;;;;48.38;30.33;;;19.90;99.90;;;;;;5032064;28;20029;-57
2022/08/23 09:05:17;;;;;;;46.93;28.47;;;19.90;99.90;;;;;;5031894;28;20112;-57
2022/08/23 09:08:03;;;;;;;47.13;31.13;;;19.90;99.90;;;;;;5031957;28;20392;-57
2022/08/23 09:10:50;;;;;;;54.15;31.80;;;20.00;99.90;;;;;;5010407;28;20036;-58
2022/08/23 09:13:26;;;;;;;50.72;29.52;;;20.00;99.90;;;;;;5052253;23;20041;-89
2022/08/23 09:16:02;;;;;;;43.58;28.33;;;20.00;99.90;;;;;;5069401;28;20025;-88
2022/08/23 09:18:33;;;;;;;49.65;31.45;;;20.00;99.90;;;;;;5069444;28;20032;-87
2022/08/23 09:21:01;;;;;;;44.83;30.70;;;20.00;99.90;;;;;;5051907;28;20057;-88
2022/08/23 09:23:34;;;;;;;56.88;33.40;;;20.10;99.90;;;;;;5053021;28;20025;-89
2022/08/23 09:26:03;;;;;;;60.13;33.58;;;20.10;99.90;;;;;;5053901;28;20027;-89
2022/08/23 09:28:33;;;;;;;58.42;36.28;;;20.00;99.90;;;;;;5054399;28;20108;-89
2022/08/23 09:30:59;;;;;;;58.47;33.90;;;20.00;99.90;;;;;;5053744;28;20032;-89
2022/08/23 09:33:37;;;;;;;58.22;35.63;;;19.90;99.90;;;;;;5052694;28;20021;-88
2022/08/23 09:36:21;;;;;;;62.92;37.80;;;20.00;99.90;;;;;;5054722;28;20040;-88
2022/08/23 09:39:20;;;;;;;58.50;35.97;;;19.90;99.90;;;;;;5053648;28;20025;-90
2022/08/23 09:41:47;;;;;;;56.42;33.88;;;19.90;99.90;;;;;;5054270;28;20481;-89
2022/08/23 09:44:28;;;;;;;57.73;36.53;;;19.90;99.90;;;;;;5052753;28;20032;-89
2022/08/23 09:47:05;;;;;;;61.03;37.25;;;19.90;99.90;;;;;;5053453;28;20111;-88
2022/08/23 09:49:31;;;;;;;60.50;34.60;;;19.90;99.90;;;;;;5052148;28;20083;-89
2022/08/23 09:52:17;;;;;;;58.55;33.65;;;20.00;99.90;;;;;;5053041;28;20037;-89
2022/08/23 09:54:43;;;;;;;59.33;34.63;;;20.00;99.90;;;;;;5067178;28;20032;-89
2022/08/23 09:57:12;;;;;;;51.20;32.38;;;19.90;99.90;;;;;;5076358;28;20039;-88
2022/08/23 09:59:46;;;;;;;59.70;34.78;;;20.00;99.90;;;;;;5075259;28;20067;-89
2022/08/23 10:02:33;;;;;;;54.90;32.55;;;20.00;99.90;;;;;;5061662;28;20040;-89
2022/08/23 10:05:01;;;;;;;51.75;31.45;;;20.00;99.90;;;;;;5053774;28;20033;-90
2022/08/23 10:07:40;;;;;;;50.70;31.63;;;20.00;99.90;;;;;;5053201;28;20036;-90
2022/08/23 10:10:24;;;;;;;46.83;30.00;;;20.10;99.90;;;;;;5052768;28;20047;-90
2022/08/23 10:12:51;;;;;;;50.65;29.05;;;20.00;99.90;;;;;;5051414;28;20029;-90
2022/08/23 10:15:17;;;;;;;44.05;29.60;;;20.00;99.90;;;;;;5052332;28;20511;-90
2022/08/23 10:18:11;;;;;;;45.42;28.23;;;20.00;99.90;;;;;;5052130;28;20503;-89
2022/08/23 10:20:46;;;;;;;43.72;28.10;;;20.00;99.90;;;;;;5051232;28;20115;-89
2022/08/23 10:23:22;;;;;;;45.65;30.50;;;20.00;99.90;;;;;;5051849;28;20021;-89
2022/08/23 10:25:56;;;;;;;40.17;27.92;;;20.00;99.90;;;;;;5068811;28;20492;-89
2022/08/23 10:31:33;;;;;;;39.78;27.40;;;20.10;99.90;;;;;;5052186;28;20072;-89
2022/08/23 10:34:23;;;;;;;38.15;27.17;;;20.00;99.90;;;;;;5051406;28;20692;-89
2022/08/23 10:37:14;;;;;;;48.05;28.70;;;20.00;99.90;;;;;;5050834;28;20108;-89
2022/08/23 10:40:11;;;;;;;45.88;28.80;;;20.10;99.90;;;;;;5067921;28;20028;-88
2022/08/23 10:43:15;;;;;;;51.25;32.35;;;20.20;99.90;;;;;;5062938;28;20132;-89
2022/08/23 10:45:45;;;;;;;58.10;33.35;;;20.10;99.90;;;;;;5067711;28;20021;-89
2022/08/23 10:48:33;;;;;;;58.13;33.20;;;20.20;99.90;;;;;;5051494;28;20029;-88
2022/08/23 10:51:06;;;;;;;58.97;32.72;;;20.20;99.90;;;;;;5067868;28;20635;-88
2022/08/23 10:53:47;;;;;;;60.38;36.55;;;20.30;99.90;;;;;;5050337;28;20029;-88
2022/08/23 10:56:19;;;;;;;58.17;34.75;;;20.40;99.90;;;;;;5050827;28;20059;-89
2022/08/23 10:59:03;;;;;;;53.67;33.40;;;20.30;99.90;;;;;;5050747;28;20025;-89
2022/08/23 11:01:51;;;;;;;53.83;33.08;;;20.30;99.90;;;;;;5066974;28;20033;-89
2022/08/23 11:04:52;;;;;;;68.13;37.40;;;20.10;99.90;;;;;;5051169;28;20025;-90
2022/08/23 11:07:28;;;;;;;68.55;36.78;;;20.00;99.90;;;;;;5066614;28;20027;-89
2022/08/23 11:10:02;;;;;;;67.32;37.03;;;20.00;99.90;;;;;;5052076;28;20032;-89
2022/08/23 11:12:33;;;;;;;63.63;35.40;;;20.00;99.90;;;;;;5067743;28;20120;-88
2022/08/23 11:15:18;;;;;;;68.22;36.88;;;19.90;99.90;;;;;;5050363;28;20049;-89
2022/08/23 11:17:50;;;;;;;69.65;37.63;;;20.00;99.90;;;;;;5050801;28;20021;-88
2022/08/23 11:20:51;;;;;;;71.43;36.80;;;20.00;99.90;;;;;;5067978;28;20025;-90
2022/08/23 11:23:37;;;;;;;60.95;33.25;;;20.00;99.90;;;;;;5067063;28;20122;-90
2022/08/23 11:26:06;;;;;;;66.07;36.45;;;20.00;99.90;;;;;;5067726;28;20025;-89
2022/08/23 11:28:45;;;;;;;69.72;38.42;;;19.90;99.90;;;;;;5050752;28;20400;-90
2022/08/23 11:31:11;;;;;;;67.57;35.85;;;20.00;99.90;;;;;;5050286;28;20025;-90
2022/08/23 11:33:58;;;;;;;63.67;36.85;;;20.00;99.90;;;;;;5067617;28;20574;-89
2022/08/23 11:36:27;;;;;;;58.03;34.38;;;20.10;99.90;;;;;;5050642;28;20017;-90
2022/08/23 11:38:54;;;;;;;63.40;34.85;;;20.30;99.90;;;;;;5050495;28;20033;-89
2022/08/23 11:41:54;;;;;;;62.60;35.72;;;20.40;99.90;;;;;;5067394;28;20037;-90
2022/08/23 11:44:39;;;;;;;64.13;35.25;;;20.50;99.90;;;;;;5069652;28;20033;-89
2022/08/23 11:47:09;;;;;;;55.03;33.80;;;20.60;99.90;;;;;;5054681;28;20025;-90
2022/08/23 11:50:12;;;;;;;56.65;32.45;;;20.70;99.90;;;;;;5054657;28;20078;-90
2022/08/23 11:52:56;;;;;;;49.28;31.13;;;20.60;99.90;;;;;;5070706;28;20021;-90
2022/08/23 11:55:31;;;;;;;50.20;31.08;;;20.70;99.90;;;;;;5054686;28;20116;-89
2022/08/23 11:58:15;;;;;;;50.58;29.48;;;20.80;99.90;;;;;;5054653;28;20025;-89
2022/08/23 12:01:07;;;;;;;45.92;29.42;;;20.90;99.90;;;;;;5070206;28;20025;-90
2022/08/23 12:03:43;;;;;;;56.17;31.80;;;20.80;99.90;;;;;;5054278;28;20025;-88
2022/08/23 12:06:11;;;;;;;48.03;27.95;;;20.90;99.90;;;;;;5071022;28;20025;-89
2022/08/23 12:08:54;;;;;;;45.80;29.60;;;20.80;99.90;;;;;;5053667;28;20032;-89
2022/08/23 12:11:23;;;;;;;51.20;30.58;;;20.70;99.90;;;;;;5071285;28;20032;-88
2022/08/23 12:13:54;;;;;;;49.55;31.15;;;20.70;99.90;;;;;;5055474;28;20045;-88
2022/08/23 12:16:20;;;;;;;53.78;31.00;;;20.60;99.90;;;;;;5054180;28;20029;-88
2022/08/23 12:18:49;;;;;;;54.13;32.90;;;20.60;99.90;;;;;;5070026;28;20120;-88
2022/08/23 12:21:31;;;;;;;51.90;30.65;;;20.50;99.90;;;;;;5070662;28;20155;-88
2022/08/23 12:24:01;;;;;;;51.08;29.33;;;20.50;99.90;;;;;;5054642;28;20495;-88
2022/08/23 12:26:57;;;;;;;51.35;28.30;;;20.50;99.90;;;;;;5053600;28;20032;-88
2022/08/23 12:29:38;;;;;;;53.20;29.35;;;20.50;99.90;;;;;;5069907;28;20540;-89
2022/08/23 12:32:18;;;;;;;58.88;31.55;;;20.50;99.90;;;;;;5070170;28;20116;-90
2022/08/23 12:35:10;;;;;;;49.28;30.55;;;20.50;99.90;;;;;;5054718;28;20036;-90
2022/08/23 12:38:09;;;;;;;49.25;32.65;;;20.60;99.90;;;;;;5032239;28;20029;-90
2022/08/23 12:40:48;;;;;;;51.88;30.88;;;20.70;99.90;;;;;;5074346;28;20009;-90
2022/08/23 12:43:16;;;;;;;52.40;30.45;;;20.80;99.90;;;;;;5077591;28;20028;-89
2022/08/23 12:45:49;;;;;;;49.92;32.83;;;20.90;99.90;;;;;;5093395;28;20085;-89
2022/08/23 12:48:20;;;;;;;52.45;31.45;;;21.00;99.90;;;;;;5062182;28;20047;-90
2022/08/23 12:50:54;;;;;;;47.92;30.23;;;21.00;99.90;;;;;;5056677;28;20021;-90
2022/08/23 12:53:30;;;;;;;52.85;31.85;;;21.20;99.90;;;;;;5054334;28;20032;-89
2022/08/23 12:56:05;;;;;;;47.72;30.02;;;21.60;99.90;;;;;;5053743;28;20036;-89
2022/08/23 12:58:35;;;;;;;43.92;29.00;;;22.10;99.90;;;;;;5052499;28;20021;-89